sensor_id;sensor_type;location;lat;lon;timestamp;pressure;altitude;pressure_sealevel;temperature;humidity
43071;BME280;36278;47.952;21.714;2023-03-03T00:00:40;100597.56;;;2.21;82.03
43071;BME280;36278;47.952;21.714;2023-03-03T00:03:07;100599.25;;;2.22;82.21
43071;BME280;36278;47.952;21.714;2023-03-03T00:05:34;100589.09;;;2.15;81.86
43071;BME280;36278;47.952;21.714;2023-03-03T00:08:00;100594.09;;;2.21;80.87
43071;BME280;36278;47.952;21.714;2023-03-03T00:10:26;100594.19;;;2.18;81.33
43071;BME280;36278;47.952;21.714;2023-03-03T00:12:52;100591.75;;;2.13;81.27
43071;BME280;36278;47.952;21.714;2023-03-03T00:15:22;100598.69;;;2.14;81.22
43071;BME280;36278;47.952;21.714;2023-03-03T00:17:49;100599.03;;;2.05;81.69
43071;BME280;36278;47.952;21.714;2023-03-03T00:20:36;100590.38;;;2.03;81.03
43071;BME280;36278;47.952;21.714;2023-03-03T00:23:39;100591.34;;;2.01;82.33
43071;BME280;36278;47.952;21.714;2023-03-03T00:26:22;100588.06;;;1.95;82.09
43071;BME280;36278;47.952;21.714;2023-03-03T00:28:52;100590.94;;;1.88;82.18
43071;BME280;36278;47.952;21.714;2023-03-03T00:31:28;100591.81;;;1.88;82.27
43071;BME280;36278;47.952;21.714;2023-03-03T00:33:56;100592.41;;;1.95;81.29
43071;BME280;36278;47.952;21.714;2023-03-03T00:41:47;100592.34;;;1.73;82.24
43071;BME280;36278;47.952;21.714;2023-03-03T00:44:38;100593.97;;;1.76;82.61
43071;BME280;36278;47.952;21.714;2023-03-03T00:49:38;100587.97;;;1.74;82.68
43071;BME280;36278;47.952;21.714;2023-03-03T00:52:15;100579.47;;;1.67;83.22
43071;BME280;36278;47.952;21.714;2023-03-03T00:54:41;100576.03;;;1.66;83.72
43071;BME280;36278;47.952;21.714;2023-03-03T00:57:07;100580.53;;;1.61;83.50
43071;BME280;36278;47.952;21.714;2023-03-03T00:59:32;100580.78;;;1.55;84.07
43071;BME280;36278;47.952;21.714;2023-03-03T01:01:58;100576.34;;;1.57;84.53
43071;BME280;36278;47.952;21.714;2023-03-03T01:04:23;100566.81;;;1.56;83.28
43071;BME280;36278;47.952;21.714;2023-03-03T01:06:48;100572.88;;;1.57;83.58
43071;BME280;36278;47.952;21.714;2023-03-03T01:09:14;100569.50;;;1.53;83.69
43071;BME280;36278;47.952;21.714;2023-03-03T01:11:39;100566.44;;;1.42;84.22
43071;BME280;36278;47.952;21.714;2023-03-03T01:14:06;100566.47;;;1.40;84.35
43071;BME280;36278;47.952;21.714;2023-03-03T01:16:33;100568.25;;;1.40;84.18
43071;BME280;36278;47.952;21.714;2023-03-03T01:18:58;100555.13;;;1.42;84.09
43071;BME280;36278;47.952;21.714;2023-03-03T01:21:24;100558.47;;;1.45;83.65
43071;BME280;36278;47.952;21.714;2023-03-03T01:23:50;100559.00;;;1.30;84.41
43071;BME280;36278;47.952;21.714;2023-03-03T01:26:15;100550.28;;;1.31;84.94
43071;BME280;36278;47.952;21.714;2023-03-03T01:28:41;100558.19;;;1.28;84.67
43071;BME280;36278;47.952;21.714;2023-03-03T01:31:06;100555.34;;;1.35;84.22
43071;BME280;36278;47.952;21.714;2023-03-03T01:33:33;100559.50;;;1.41;83.73
43071;BME280;36278;47.952;21.714;2023-03-03T01:35:59;100548.22;;;1.40;84.96
43071;BME280;36278;47.952;21.714;2023-03-03T01:38:24;100551.50;;;1.46;84.01
43071;BME280;36278;47.952;21.714;2023-03-03T01:40:55;100549.91;;;1.42;84.41
43071;BME280;36278;47.952;21.714;2023-03-03T01:43:21;100540.91;;;1.25;84.57
43071;BME280;36278;47.952;21.714;2023-03-03T01:48:32;100557.47;;;1.24;84.42
43071;BME280;36278;47.952;21.714;2023-03-03T01:51:01;100553.41;;;1.16;84.46
43071;BME280;36278;47.952;21.714;2023-03-03T01:53:44;100554.50;;;1.08;85.20
43071;BME280;36278;47.952;21.714;2023-03-03T01:56:10;100550.16;;;1.09;86.84
43071;BME280;36278;47.952;21.714;2023-03-03T01:58:40;100550.75;;;1.17;84.81
43071;BME280;36278;47.952;21.714;2023-03-03T02:01:19;100547.34;;;1.15;84.66
43071;BME280;36278;47.952;21.714;2023-03-03T02:03:46;100553.59;;;1.09;84.82
43071;BME280;36278;47.952;21.714;2023-03-03T02:06:14;100552.94;;;1.03;85.61
43071;BME280;36278;47.952;21.714;2023-03-03T02:09:05;100551.25;;;1.02;85.59
43071;BME280;36278;47.952;21.714;2023-03-03T02:11:33;100557.44;;;0.99;86.38
43071;BME280;36278;47.952;21.714;2023-03-03T02:14:00;100546.03;;;1.02;85.60
43071;BME280;36278;47.952;21.714;2023-03-03T02:16:26;100542.03;;;0.92;84.95
43071;BME280;36278;47.952;21.714;2023-03-03T02:18:52;100546.53;;;0.87;86.55
43071;BME280;36278;47.952;21.714;2023-03-03T02:21:22;100546.69;;;0.82;86.38
43071;BME280;36278;47.952;21.714;2023-03-03T02:24:04;100545.06;;;0.78;86.24
43071;BME280;36278;47.952;21.714;2023-03-03T02:26:35;100535.59;;;0.75;86.45
43071;BME280;36278;47.952;21.714;2023-03-03T02:29:01;100550.03;;;0.86;85.24
43071;BME280;36278;47.952;21.714;2023-03-03T02:31:29;100540.03;;;0.72;86.00
43071;BME280;36278;47.952;21.714;2023-03-03T02:33:55;100533.16;;;0.69;86.26
43071;BME280;36278;47.952;21.714;2023-03-03T02:36:30;100533.16;;;0.69;85.81
43071;BME280;36278;47.952;21.714;2023-03-03T02:44:11;100533.16;;;0.69;85.50
43071;BME280;36278;47.952;21.714;2023-03-03T02:46:39;100531.47;;;0.68;86.86
43071;BME280;36278;47.952;21.714;2023-03-03T02:49:06;100530.50;;;0.71;86.03
43071;BME280;36278;47.952;21.714;2023-03-03T02:51:33;100529.91;;;0.63;86.10
43071;BME280;36278;47.952;21.714;2023-03-03T02:53:58;100526.59;;;0.58;86.57
43071;BME280;36278;47.952;21.714;2023-03-03T02:56:24;100533.53;;;0.59;86.38
43071;BME280;36278;47.952;21.714;2023-03-03T02:58:50;100527.47;;;0.56;87.06
43071;BME280;36278;47.952;21.714;2023-03-03T03:01:16;100519.81;;;0.52;86.90
43071;BME280;36278;47.952;21.714;2023-03-03T03:03:44;100519.88;;;0.50;86.86
43071;BME280;36278;47.952;21.714;2023-03-03T03:06:09;100513.69;;;0.53;86.85
43071;BME280;36278;47.952;21.714;2023-03-03T03:08:35;100513.81;;;0.50;87.10
43071;BME280;36278;47.952;21.714;2023-03-03T03:11:01;100516.66;;;0.42;87.86
43071;BME280;36278;47.952;21.714;2023-03-03T03:13:26;100498.97;;;0.52;87.13
43071;BME280;36278;47.952;21.714;2023-03-03T03:15:52;100508.25;;;0.61;85.49
43071;BME280;36278;47.952;21.714;2023-03-03T03:18:18;100481.91;;;0.42;85.98
43071;BME280;36278;47.952;21.714;2023-03-03T03:20:44;100506.78;;;0.52;86.29
43071;BME280;36278;47.952;21.714;2023-03-03T03:23:10;100500.72;;;0.51;86.53
43071;BME280;36278;47.952;21.714;2023-03-03T03:25:36;100496.97;;;0.60;85.83
43071;BME280;36278;47.952;21.714;2023-03-03T03:28:07;100499.88;;;0.51;86.23
43071;BME280;36278;47.952;21.714;2023-03-03T03:30:34;100497.94;;;0.58;85.87
43071;BME280;36278;47.952;21.714;2023-03-03T03:33:00;100500.56;;;0.56;85.59
43071;BME280;36278;47.952;21.714;2023-03-03T03:35:25;100492.91;;;0.51;86.60
43071;BME280;36278;47.952;21.714;2023-03-03T03:37:51;100487.63;;;0.53;86.51
43071;BME280;36278;47.952;21.714;2023-03-03T03:40:16;100488.38;;;0.56;86.28
43071;BME280;36278;47.952;21.714;2023-03-03T03:42:42;100483.31;;;0.52;86.59
43071;BME280;36278;47.952;21.714;2023-03-03T03:45:08;100479.72;;;0.56;86.72
43071;BME280;36278;47.952;21.714;2023-03-03T03:47:33;100477.06;;;0.58;86.16
43071;BME280;36278;47.952;21.714;2023-03-03T03:49:59;100470.06;;;0.60;85.60
43071;BME280;36278;47.952;21.714;2023-03-03T03:52:24;100471.00;;;0.57;86.05
43071;BME280;36278;47.952;21.714;2023-03-03T03:54:49;100473.00;;;0.49;86.81
43071;BME280;36278;47.952;21.714;2023-03-03T03:57:15;100471.88;;;0.56;86.75
43071;BME280;36278;47.952;21.714;2023-03-03T03:59:40;100479.69;;;0.58;85.78
43071;BME280;36278;47.952;21.714;2023-03-03T04:02:06;100464.22;;;0.51;86.06
43071;BME280;36278;47.952;21.714;2023-03-03T04:04:32;100472.13;;;0.48;86.38
43071;BME280;36278;47.952;21.714;2023-03-03T04:06:57;100468.47;;;0.54;86.85
43071;BME280;36278;47.952;21.714;2023-03-03T04:09:23;100477.25;;;0.51;86.52
43071;BME280;36278;47.952;21.714;2023-03-03T04:11:49;100474.59;;;0.53;85.17
43071;BME280;36278;47.952;21.714;2023-03-03T04:14:14;100475.63;;;0.49;85.99
43071;BME280;36278;47.952;21.714;2023-03-03T04:16:40;100467.13;;;0.42;86.88
43071;BME280;36278;47.952;21.714;2023-03-03T04:19:05;100476.47;;;0.49;86.14
43071;BME280;36278;47.952;21.714;2023-03-03T04:21:31;100482.38;;;0.54;86.70
43071;BME280;36278;47.952;21.714;2023-03-03T04:23:56;100473.03;;;0.47;86.87
43071;BME280;36278;47.952;21.714;2023-03-03T04:26:22;100478.34;;;0.44;86.69
43071;BME280;36278;47.952;21.714;2023-03-03T04:28:47;100474.41;;;0.31;86.48
43071;BME280;36278;47.952;21.714;2023-03-03T04:31:13;100469.13;;;0.34;86.91
43071;BME280;36278;47.952;21.714;2023-03-03T04:33:39;100460.41;;;0.35;87.47
43071;BME280;36278;47.952;21.714;2023-03-03T04:36:04;100469.81;;;0.39;86.88
43071;BME280;36278;47.952;21.714;2023-03-03T04:38:30;100468.16;;;0.37;87.79
43071;BME280;36278;47.952;21.714;2023-03-03T04:40:56;100468.03;;;0.41;87.15
43071;BME280;36278;47.952;21.714;2023-03-03T04:43:21;100470.16;;;0.28;87.20
43071;BME280;36278;47.952;21.714;2023-03-03T04:45:47;100463.38;;;0.23;87.91
43071;BME280;36278;47.952;21.714;2023-03-03T04:48:13;100458.16;;;0.23;87.63
43071;BME280;36278;47.952;21.714;2023-03-03T04:50:38;100461.63;;;0.23;87.76
43071;BME280;36278;47.952;21.714;2023-03-03T04:53:04;100463.72;;;0.12;87.41
43071;BME280;36278;47.952;21.714;2023-03-03T04:55:29;100468.06;;;0.12;88.35
43071;BME280;36278;47.952;21.714;2023-03-03T04:57:55;100468.13;;;0.10;88.35
43071;BME280;36278;47.952;21.714;2023-03-03T05:00:20;100462.75;;;0.15;89.08
43071;BME280;36278;47.952;21.714;2023-03-03T05:02:47;100463.72;;;0.12;88.71
43071;BME280;36278;47.952;21.714;2023-03-03T05:05:13;100462.91;;;0.10;88.10
43071;BME280;36278;47.952;21.714;2023-03-03T05:07:39;100464.53;;;0.14;88.00
43071;BME280;36278;47.952;21.714;2023-03-03T05:10:05;100469.78;;;0.13;87.93
43071;BME280;36278;47.952;21.714;2023-03-03T05:12:31;100466.50;;;0.06;87.71
43071;BME280;36278;47.952;21.714;2023-03-03T05:14:57;100456.38;;;-0.03;87.92
43071;BME280;36278;47.952;21.714;2023-03-03T05:17:22;100462.88;;;0.12;88.38
43071;BME280;36278;47.952;21.714;2023-03-03T05:19:47;100470.91;;;0.04;88.16
43071;BME280;36278;47.952;21.714;2023-03-03T05:22:13;100476.16;;;0.03;88.54
43071;BME280;36278;47.952;21.714;2023-03-03T05:24:38;100476.25;;;-0.01;88.95
43071;BME280;36278;47.952;21.714;2023-03-03T05:27:04;100471.88;;;0.02;88.30
43071;BME280;36278;47.952;21.714;2023-03-03T05:29:30;100468.63;;;-0.07;89.19
43071;BME280;36278;47.952;21.714;2023-03-03T05:31:57;100470.16;;;0.01;89.04
43071;BME280;36278;47.952;21.714;2023-03-03T05:34:23;100470.06;;;0.04;88.61
43071;BME280;36278;47.952;21.714;2023-03-03T05:36:49;100480.31;;;0.10;88.12
43071;BME280;36278;47.952;21.714;2023-03-03T05:39:15;100487.03;;;0.17;88.29
43071;BME280;36278;47.952;21.714;2023-03-03T05:41:41;100484.69;;;0.08;88.32
43071;BME280;36278;47.952;21.714;2023-03-03T05:44:07;100482.13;;;0.06;88.07
43071;BME280;36278;47.952;21.714;2023-03-03T05:46:33;100486.25;;;0.13;88.69
43071;BME280;36278;47.952;21.714;2023-03-03T05:48:58;100473.97;;;0.18;88.05
43071;BME280;36278;47.952;21.714;2023-03-03T05:51:24;100492.72;;;0.30;87.70
43071;BME280;36278;47.952;21.714;2023-03-03T05:53:49;100500.25;;;0.39;87.84
43071;BME280;36278;47.952;21.714;2023-03-03T05:56:15;100498.41;;;0.42;87.89
43071;BME280;36278;47.952;21.714;2023-03-03T05:58:41;100494.72;;;0.49;87.38
43071;BME280;36278;47.952;21.714;2023-03-03T06:01:06;100490.09;;;0.58;87.62
43071;BME280;36278;47.952;21.714;2023-03-03T06:03:50;100499.28;;;0.69;86.79
43071;BME280;36278;47.952;21.714;2023-03-03T06:06:34;100499.56;;;0.60;87.65
43071;BME280;36278;47.952;21.714;2023-03-03T06:09:18;100492.50;;;0.64;87.10
43071;BME280;36278;47.952;21.714;2023-03-03T06:12:04;100502.38;;;0.80;86.38
43071;BME280;36278;47.952;21.714;2023-03-03T06:14:49;100508.84;;;0.95;85.07
43071;BME280;36278;47.952;21.714;2023-03-03T06:17:33;100507.88;;;0.99;85.14
43071;BME280;36278;47.952;21.714;2023-03-03T06:20:17;100516.88;;;1.16;86.07
43071;BME280;36278;47.952;21.714;2023-03-03T06:22:52;100516.44;;;1.28;85.68
43071;BME280;36278;47.952;21.714;2023-03-03T06:25:18;100517.56;;;1.46;84.87
43071;BME280;36278;47.952;21.714;2023-03-03T06:27:43;100512.19;;;1.50;84.46
43071;BME280;36278;47.952;21.714;2023-03-03T06:30:09;100492.94;;;1.53;83.01
43071;BME280;36278;47.952;21.714;2023-03-03T06:32:35;100508.69;;;1.75;82.71
43071;BME280;36278;47.952;21.714;2023-03-03T06:35:00;100509.84;;;1.91;82.12
43071;BME280;36278;47.952;21.714;2023-03-03T06:37:26;100509.28;;;2.06;80.93
43071;BME280;36278;47.952;21.714;2023-03-03T06:39:51;100510.69;;;2.15;81.36
43071;BME280;36278;47.952;21.714;2023-03-03T06:42:17;100511.13;;;2.26;79.91
43071;BME280;36278;47.952;21.714;2023-03-03T06:44:44;100508.22;;;2.34;80.19
43071;BME280;36278;47.952;21.714;2023-03-03T06:47:09;100513.59;;;2.52;78.87
43071;BME280;36278;47.952;21.714;2023-03-03T06:49:35;100495.16;;;2.56;76.50
43071;BME280;36278;47.952;21.714;2023-03-03T06:52:01;100514.13;;;2.83;76.07
43071;BME280;36278;47.952;21.714;2023-03-03T06:54:34;100510.34;;;2.90;75.83
43071;BME280;36278;47.952;21.714;2023-03-03T06:57:10;100530.78;;;3.02;74.04
43071;BME280;36278;47.952;21.714;2023-03-03T06:59:39;100538.56;;;3.24;73.06
43071;BME280;36278;47.952;21.714;2023-03-03T07:02:14;100538.69;;;3.43;72.25
43071;BME280;36278;47.952;21.714;2023-03-03T07:04:41;100530.75;;;3.44;71.95
43071;BME280;36278;47.952;21.714;2023-03-03T07:07:23;100541.81;;;3.51;71.84
43071;BME280;36278;47.952;21.714;2023-03-03T07:39:33;100541.84;;;4.46;68.90
43071;BME280;36278;47.952;21.714;2023-03-03T07:42:24;100537.03;;;4.56;69.73
43071;BME280;36278;47.952;21.714;2023-03-03T07:44:57;100532.81;;;4.71;69.23
43071;BME280;36278;47.952;21.714;2023-03-03T07:49:51;100532.06;;;4.86;67.54
43071;BME280;36278;47.952;21.714;2023-03-03T07:55:22;100535.53;;;5.05;64.46
43071;BME280;36278;47.952;21.714;2023-03-03T07:57:51;100541.16;;;4.98;65.24
43071;BME280;36278;47.952;21.714;2023-03-03T08:03:07;100535.06;;;4.78;64.56
43071;BME280;36278;47.952;21.714;2023-03-03T08:05:42;100539.44;;;4.61;65.03
43071;BME280;36278;47.952;21.714;2023-03-03T08:13:15;100545.69;;;4.58;66.89
43071;BME280;36278;47.952;21.714;2023-03-03T08:15:42;100541.97;;;4.81;68.20
43071;BME280;36278;47.952;21.714;2023-03-03T08:18:18;100533.28;;;4.98;65.78
43071;BME280;36278;47.952;21.714;2023-03-03T08:20:47;100544.69;;;4.97;65.75
43071;BME280;36278;47.952;21.714;2023-03-03T08:23:15;100540.69;;;5.07;65.07
43071;BME280;36278;47.952;21.714;2023-03-03T08:25:41;100538.63;;;5.31;65.46
43071;BME280;36278;47.952;21.714;2023-03-03T08:28:07;100548.31;;;5.29;65.22
43071;BME280;36278;47.952;21.714;2023-03-03T08:30:33;100542.16;;;5.47;64.77
43071;BME280;36278;47.952;21.714;2023-03-03T08:32:58;100539.84;;;5.41;64.01
43071;BME280;36278;47.952;21.714;2023-03-03T08:35:26;100531.88;;;5.43;64.30
43071;BME280;36278;47.952;21.714;2023-03-03T08:37:52;100536.06;;;5.47;64.63
43071;BME280;36278;47.952;21.714;2023-03-03T08:40:18;100535.28;;;5.62;65.03
43071;BME280;36278;47.952;21.714;2023-03-03T08:42:44;100531.88;;;5.60;64.40
43071;BME280;36278;47.952;21.714;2023-03-03T08:45:09;100535.47;;;5.92;63.91
43071;BME280;36278;47.952;21.714;2023-03-03T08:47:35;100526.78;;;6.07;63.74
43071;BME280;36278;47.952;21.714;2023-03-03T08:50:00;100524.69;;;6.30;62.81
43071;BME280;36278;47.952;21.714;2023-03-03T08:52:26;100525.78;;;6.41;62.17
43071;BME280;36278;47.952;21.714;2023-03-03T08:54:52;100529.88;;;6.47;61.96
43071;BME280;36278;47.952;21.714;2023-03-03T08:57:18;100528.41;;;6.57;61.80
43071;BME280;36278;47.952;21.714;2023-03-03T08:59:44;100528.50;;;6.71;61.28
43071;BME280;36278;47.952;21.714;2023-03-03T09:02:12;100521.53;;;6.70;61.08
43071;BME280;36278;47.952;21.714;2023-03-03T09:04:38;100521.53;;;6.86;60.42
43071;BME280;36278;47.952;21.714;2023-03-03T09:07:04;100524.03;;;7.03;60.56
43071;BME280;36278;47.952;21.714;2023-03-03T09:09:30;100527.38;;;7.21;59.45
43071;BME280;36278;47.952;21.714;2023-03-03T09:12:11;100530.41;;;7.29;59.14
43071;BME280;36278;47.952;21.714;2023-03-03T09:14:40;100527.06;;;7.42;59.52
43071;BME280;36278;47.952;21.714;2023-03-03T09:17:22;100531.78;;;7.51;58.35
43071;BME280;36278;47.952;21.714;2023-03-03T09:19:49;100521.28;;;7.94;57.62
43071;BME280;36278;47.952;21.714;2023-03-03T09:22:23;100518.44;;;8.25;56.50
43071;BME280;36278;47.952;21.714;2023-03-03T09:24:52;100520.50;;;8.34;56.36
43071;BME280;36278;47.952;21.714;2023-03-03T09:27:28;100522.69;;;8.42;56.02
43071;BME280;36278;47.952;21.714;2023-03-03T09:29:55;100522.22;;;8.35;55.34
43071;BME280;36278;47.952;21.714;2023-03-03T09:32:34;100523.59;;;8.55;55.10
43071;BME280;36278;47.952;21.714;2023-03-03T09:37:51;100516.19;;;8.48;54.29
43071;BME280;36278;47.952;21.714;2023-03-03T09:46:12;100521.28;;;9.17;53.45
43071;BME280;36278;47.952;21.714;2023-03-03T09:52:17;100513.81;;;9.49;52.22
43071;BME280;36278;47.952;21.714;2023-03-03T09:58:26;100519.13;;;9.49;50.38
43071;BME280;36278;47.952;21.714;2023-03-03T10:03:36;100517.22;;;9.77;50.26
43071;BME280;36278;47.952;21.714;2023-03-03T10:06:55;100510.66;;;9.95;50.13
43071;BME280;36278;47.952;21.714;2023-03-03T10:12:27;100511.06;;;10.15;49.60
43071;BME280;36278;47.952;21.714;2023-03-03T10:15:24;100501.66;;;10.10;49.72
43071;BME280;36278;47.952;21.714;2023-03-03T10:26:15;100495.09;;;10.53;48.83
43071;BME280;36278;47.952;21.714;2023-03-03T10:45:34;100456.16;;;11.36;47.73
43071;BME280;36278;47.952;21.714;2023-03-03T10:50:33;100458.00;;;11.69;47.10
43071;BME280;36278;47.952;21.714;2023-03-03T10:59:12;100437.91;;;12.44;44.85
43071;BME280;36278;47.952;21.714;2023-03-03T11:07:12;100441.06;;;12.38;44.65
43071;BME280;36278;47.952;21.714;2023-03-03T11:15:38;100414.56;;;12.58;44.92
43071;BME280;36278;47.952;21.714;2023-03-03T11:21:19;100413.88;;;12.77;45.13
43071;BME280;36278;47.952;21.714;2023-03-03T11:33:09;100414.56;;;13.11;44.44
43071;BME280;36278;47.952;21.714;2023-03-03T11:36:15;100404.56;;;13.04;44.46
43071;BME280;36278;47.952;21.714;2023-03-03T11:43:59;100402.75;;;12.83;45.68
43071;BME280;36278;47.952;21.714;2023-03-03T11:46:55;100398.44;;;13.24;44.92
43071;BME280;36278;47.952;21.714;2023-03-03T11:55:11;100391.00;;;12.54;46.12
43071;BME280;36278;47.952;21.714;2023-03-03T11:57:54;100394.34;;;13.20;45.25
43071;BME280;36278;47.952;21.714;2023-03-03T12:00:36;100395.16;;;13.41;44.10
43071;BME280;36278;47.952;21.714;2023-03-03T12:11:47;100370.91;;;14.35;42.62
43071;BME280;36278;47.952;21.714;2023-03-03T12:25:24;100353.66;;;14.10;43.25
43071;BME280;36278;47.952;21.714;2023-03-03T12:28:19;100350.84;;;14.21;42.07
43071;BME280;36278;47.952;21.714;2023-03-03T12:31:00;100358.53;;;13.55;43.72
43071;BME280;36278;47.952;21.714;2023-03-03T12:33:51;100352.66;;;14.20;42.34
43071;BME280;36278;47.952;21.714;2023-03-03T12:41:45;100347.09;;;14.62;41.92
43071;BME280;36278;47.952;21.714;2023-03-03T12:47:02;100346.34;;;14.31;41.80
43071;BME280;36278;47.952;21.714;2023-03-03T12:50:08;100348.00;;;13.93;43.82
43071;BME280;36278;47.952;21.714;2023-03-03T13:03:38;100340.06;;;16.73;38.15
43071;BME280;36278;47.952;21.714;2023-03-03T13:17:44;100333.75;;;14.62;42.22
43071;BME280;36278;47.952;21.714;2023-03-03T13:25:41;100332.06;;;14.71;42.18
43071;BME280;36278;47.952;21.714;2023-03-03T13:28:22;100327.69;;;14.31;43.29
43071;BME280;36278;47.952;21.714;2023-03-03T13:30:55;100323.63;;;14.95;42.35
43071;BME280;36278;47.952;21.714;2023-03-03T13:33:29;100315.91;;;15.93;40.62
43071;BME280;36278;47.952;21.714;2023-03-03T13:36:16;100319.22;;;16.05;39.76
43071;BME280;36278;47.952;21.714;2023-03-03T13:38:48;100315.06;;;16.64;39.14
43071;BME280;36278;47.952;21.714;2023-03-03T13:46:54;100300.38;;;16.68;38.92
43071;BME280;36278;47.952;21.714;2023-03-03T13:49:26;100292.88;;;16.90;38.55
43071;BME280;36278;47.952;21.714;2023-03-03T13:52:05;100296.28;;;16.74;38.09
43071;BME280;36278;47.952;21.714;2023-03-03T14:05:48;100307.50;;;13.19;45.31
43071;BME280;36278;47.952;21.714;2023-03-03T14:08:30;100306.09;;;12.94;45.66
43071;BME280;36278;47.952;21.714;2023-03-03T14:16:56;100298.59;;;13.60;44.57
43071;BME280;36278;47.952;21.714;2023-03-03T14:19:45;100298.34;;;13.33;44.57
43071;BME280;36278;47.952;21.714;2023-03-03T14:22:22;100295.63;;;12.72;46.41
43071;BME280;36278;47.952;21.714;2023-03-03T14:27:39;100287.81;;;13.01;46.04
43071;BME280;36278;47.952;21.714;2023-03-03T14:30:33;100293.63;;;13.15;45.41
43071;BME280;36278;47.952;21.714;2023-03-03T14:35:40;100297.19;;;12.95;46.30
43071;BME280;36278;47.952;21.714;2023-03-03T14:38:17;100299.19;;;13.33;45.74
43071;BME280;36278;47.952;21.714;2023-03-03T14:40:45;100294.38;;;13.67;44.84
43071;BME280;36278;47.952;21.714;2023-03-03T14:43:22;100296.81;;;13.80;44.87
43071;BME280;36278;47.952;21.714;2023-03-03T14:45:48;100296.66;;;13.72;44.77
43071;BME280;36278;47.952;21.714;2023-03-03T14:48:19;100300.66;;;13.57;44.92
43071;BME280;36278;47.952;21.714;2023-03-03T14:55:49;100290.78;;;12.56;47.38
43071;BME280;36278;47.952;21.714;2023-03-03T14:58:31;100291.47;;;12.05;48.21
43071;BME280;36278;47.952;21.714;2023-03-03T15:04:04;100298.03;;;11.78;48.61
43071;BME280;36278;47.952;21.714;2023-03-03T15:06:51;100305.41;;;11.64;49.49
43071;BME280;36278;47.952;21.714;2023-03-03T15:11:56;100309.31;;;11.48;49.53
43071;BME280;36278;47.952;21.714;2023-03-03T15:14:36;100302.69;;;11.43;50.44
43071;BME280;36278;47.952;21.714;2023-03-03T15:19:49;100315.84;;;11.33;50.76
43071;BME280;36278;47.952;21.714;2023-03-03T15:22:48;100305.72;;;11.16;51.06
43071;BME280;36278;47.952;21.714;2023-03-03T15:28:25;100308.13;;;11.08;51.09
43071;BME280;36278;47.952;21.714;2023-03-03T15:33:45;100294.22;;;11.60;49.87
43071;BME280;36278;47.952;21.714;2023-03-03T15:47:14;100302.56;;;11.11;51.98
43071;BME280;36278;47.952;21.714;2023-03-03T15:52:46;100301.91;;;10.74;52.68
43071;BME280;36278;47.952;21.714;2023-03-03T16:00:55;100311.34;;;10.43;54.16
43071;BME280;36278;47.952;21.714;2023-03-03T16:03:35;100311.53;;;10.28;54.05
43071;BME280;36278;47.952;21.714;2023-03-03T16:06:10;100320.13;;;10.19;54.33
43071;BME280;36278;47.952;21.714;2023-03-03T16:08:53;100321.88;;;10.07;54.68
43071;BME280;36278;47.952;21.714;2023-03-03T16:11:49;100333.38;;;9.95;55.30
43071;BME280;36278;47.952;21.714;2023-03-03T16:17:16;100330.56;;;9.73;55.17
43071;BME280;36278;47.952;21.714;2023-03-03T16:28:09;100331.50;;;9.35;56.11
43071;BME280;36278;47.952;21.714;2023-03-03T16:36:02;100338.41;;;8.99;57.41
43071;BME280;36278;47.952;21.714;2023-03-03T16:38:39;100346.22;;;8.88;58.25
43071;BME280;36278;47.952;21.714;2023-03-03T16:41:18;100350.63;;;8.75;58.78
43071;BME280;36278;47.952;21.714;2023-03-03T16:46:37;100361.47;;;8.58;58.86
43071;BME280;36278;47.952;21.714;2023-03-03T16:51:45;100371.72;;;8.50;58.68
43071;BME280;36278;47.952;21.714;2023-03-03T16:54:33;100374.19;;;8.38;59.21
43071;BME280;36278;47.952;21.714;2023-03-03T17:00:00;100367.19;;;8.10;59.74
43071;BME280;36278;47.952;21.714;2023-03-03T17:11:36;100377.28;;;7.77;61.66
43071;BME280;36278;47.952;21.714;2023-03-03T17:17:18;100387.72;;;7.64;61.47
43071;BME280;36278;47.952;21.714;2023-03-03T17:22:46;100384.25;;;7.64;61.61
43071;BME280;36278;47.952;21.714;2023-03-03T17:25:22;100382.03;;;7.57;61.35
43071;BME280;36278;47.952;21.714;2023-03-03T17:33:49;100390.09;;;7.40;61.72
43071;BME280;36278;47.952;21.714;2023-03-03T17:44:49;100401.47;;;7.12;62.84
43071;BME280;36278;47.952;21.714;2023-03-03T17:48:16;100400.44;;;7.00;62.76
43071;BME280;36278;47.952;21.714;2023-03-03T17:53:41;100419.66;;;6.87;63.14
43071;BME280;36278;47.952;21.714;2023-03-03T17:59:24;100398.88;;;6.82;62.66
43071;BME280;36278;47.952;21.714;2023-03-03T18:12:33;100417.44;;;6.65;63.18
43071;BME280;36278;47.952;21.714;2023-03-03T18:15:32;100420.41;;;6.59;63.72
43071;BME280;36278;47.952;21.714;2023-03-03T18:23:37;100418.47;;;6.62;63.29
43071;BME280;36278;47.952;21.714;2023-03-03T18:26:40;100424.66;;;6.61;63.60
43071;BME280;36278;47.952;21.714;2023-03-03T18:42:42;100433.97;;;6.37;63.25
43071;BME280;36278;47.952;21.714;2023-03-03T18:48:12;100438.72;;;6.30;64.30
43071;BME280;36278;47.952;21.714;2023-03-03T18:50:41;100439.66;;;6.29;63.85
43071;BME280;36278;47.952;21.714;2023-03-03T18:53:28;100437.97;;;6.28;63.96
43071;BME280;36278;47.952;21.714;2023-03-03T18:55:57;100439.22;;;6.21;64.20
43071;BME280;36278;47.952;21.714;2023-03-03T18:58:52;100442.84;;;6.18;64.08
43071;BME280;36278;47.952;21.714;2023-03-03T19:09:53;100461.94;;;5.90;64.97
43071;BME280;36278;47.952;21.714;2023-03-03T19:12:51;100460.16;;;5.91;64.63
43071;BME280;36278;47.952;21.714;2023-03-03T19:18:04;100464.78;;;5.86;63.40
43071;BME280;36278;47.952;21.714;2023-03-03T19:20:38;100469.69;;;5.76;63.23
43071;BME280;36278;47.952;21.714;2023-03-03T19:23:18;100478.19;;;5.81;62.60
43071;BME280;36278;47.952;21.714;2023-03-03T19:25:46;100471.13;;;5.82;62.65